createdAt,value
2023-02-13T00:02:03.083Z,19
2023-02-13T00:07:52.687Z,18
2023-02-13T00:13:52.703Z,17
2023-02-13T00:19:52.716Z,17
2023-02-13T00:25:52.698Z,17
2023-02-13T00:31:52.808Z,17
2023-02-13T00:37:52.727Z,17
2023-02-13T00:43:52.687Z,18
2023-02-13T00:49:52.675Z,18
2023-02-13T00:55:52.725Z,17
2023-02-13T01:01:52.716Z,15
2023-02-13T01:07:52.705Z,19
2023-02-13T01:13:52.716Z,15
2023-02-13T01:19:52.695Z,16
2023-02-13T01:25:53.162Z,18
2023-02-13T01:31:52.823Z,16
2023-02-13T01:37:52.688Z,17
2023-02-13T01:43:52.682Z,17
2023-02-13T01:49:52.686Z,16
2023-02-13T01:55:52.740Z,18
2023-02-13T02:01:52.762Z,16
2023-02-13T02:07:52.725Z,17
2023-02-13T02:13:52.667Z,17
2023-02-13T02:19:52.708Z,27
2023-02-13T02:25:52.717Z,21
2023-02-13T02:31:52.810Z,31
2023-02-13T02:37:52.731Z,19
2023-02-13T02:43:52.725Z,17
2023-02-13T02:49:52.672Z,17
2023-02-13T02:55:52.667Z,19
2023-02-13T03:01:52.733Z,19
2023-02-13T03:07:52.686Z,18
2023-02-13T03:13:52.669Z,17
2023-02-13T03:19:52.693Z,18
2023-02-13T03:25:52.784Z,18
2023-02-13T03:31:52.710Z,20
2023-02-13T03:37:52.677Z,17
2023-02-13T03:43:52.651Z,17
2023-02-13T03:49:52.690Z,16
2023-02-13T03:55:52.914Z,16
2023-02-13T04:01:52.689Z,16
2023-02-13T04:07:52.661Z,16
2023-02-13T04:13:52.730Z,17
2023-02-13T04:19:52.664Z,16
2023-02-13T04:25:52.658Z,18
2023-02-13T04:31:52.884Z,17
2023-02-13T04:37:52.671Z,18
2023-02-13T04:43:52.643Z,17
2023-02-13T04:49:52.674Z,18
2023-02-13T04:55:52.664Z,20
2023-02-13T05:01:52.649Z,17
2023-02-13T05:07:52.684Z,18
2023-02-13T05:13:52.653Z,19
2023-02-13T05:19:52.656Z,17
2023-02-13T05:25:52.685Z,18
2023-02-13T05:31:52.866Z,18
2023-02-13T05:37:52.670Z,18
2023-02-13T05:43:52.728Z,19
2023-02-13T05:49:52.689Z,20
2023-02-13T05:55:52.661Z,18
2023-02-13T06:01:52.723Z,19
2023-02-13T06:07:52.639Z,17
2023-02-13T06:13:52.640Z,21
2023-02-13T06:19:52.695Z,21
2023-02-13T06:25:52.664Z,20
2023-02-13T06:31:52.701Z,21
2023-02-13T06:37:52.717Z,22
2023-02-13T06:43:52.642Z,23
2023-02-13T06:49:52.651Z,27
2023-02-13T06:55:52.675Z,22
2023-02-13T07:01:52.631Z,24
2023-02-13T07:07:52.646Z,25
2023-02-13T07:13:52.673Z,25
2023-02-13T07:19:52.669Z,22
2023-02-13T07:25:52.637Z,23
2023-02-13T07:31:52.719Z,20
2023-02-13T07:37:52.640Z,20
2023-02-13T07:43:52.651Z,21
2023-02-13T07:49:52.682Z,19
2023-02-13T07:55:52.665Z,16
2023-02-13T08:01:52.711Z,15
2023-02-13T08:07:52.700Z,14
2023-02-13T08:13:52.647Z,15
2023-02-13T08:19:52.677Z,17
2023-02-13T08:25:54.879Z,17
2023-02-13T08:31:52.716Z,18
2023-02-13T08:37:52.625Z,18
2023-02-13T08:43:52.695Z,14
2023-02-13T08:49:52.635Z,12
2023-02-13T08:55:52.662Z,11
2023-02-13T09:01:52.658Z,12
2023-02-13T09:07:52.660Z,11
2023-02-13T09:13:52.622Z,13
2023-02-13T09:19:52.672Z,13
2023-02-13T09:25:52.682Z,11
2023-02-13T09:32:03.029Z,12
2023-02-13T09:37:52.690Z,11
2023-02-13T09:43:52.677Z,11
2023-02-13T09:49:52.671Z,12
2023-02-13T09:55:52.693Z,11
2023-02-13T10:01:52.694Z,13
2023-02-13T10:07:52.656Z,11
2023-02-13T10:13:52.668Z,13
2023-02-13T10:19:52.655Z,12
2023-02-13T10:25:52.648Z,12
2023-02-13T10:31:52.869Z,12
2023-02-13T10:37:52.661Z,12
2023-02-13T10:43:52.665Z,11
2023-02-13T10:49:52.694Z,11
2023-02-13T10:56:02.949Z,9
2023-02-13T11:01:52.752Z,13
2023-02-13T11:07:52.692Z,11
2023-02-13T11:13:52.680Z,10
2023-02-13T11:19:52.672Z,10
2023-02-13T11:25:52.694Z,10
2023-02-13T11:31:52.731Z,11
2023-02-13T11:37:52.656Z,9
2023-02-13T11:43:52.713Z,12
2023-02-13T11:49:52.671Z,10
2023-02-13T11:55:52.667Z,9
2023-02-13T12:01:52.691Z,8
2023-02-13T12:07:52.671Z,10
2023-02-13T12:13:52.674Z,9
2023-02-13T12:19:52.696Z,20
2023-02-13T12:25:52.660Z,10
2023-02-13T12:31:52.806Z,10
2023-02-13T12:37:52.689Z,10
2023-02-13T12:43:52.661Z,8
2023-02-13T12:49:52.645Z,8
2023-02-13T12:55:52.687Z,7
2023-02-13T13:01:52.680Z,8
2023-02-13T13:07:52.683Z,7
2023-02-13T13:13:52.683Z,7
2023-02-13T13:19:52.652Z,7
2023-02-13T13:25:52.667Z,7
2023-02-13T13:31:52.970Z,7
2023-02-13T13:37:52.676Z,7
2023-02-13T13:43:52.665Z,7
2023-02-13T13:49:53.779Z,6
2023-02-13T13:55:52.675Z,5
2023-02-13T14:01:52.669Z,7
2023-02-13T14:07:52.709Z,8
2023-02-13T14:13:52.684Z,7
2023-02-13T14:19:52.693Z,6
2023-02-13T14:25:52.769Z,7
2023-02-13T14:31:52.824Z,5
2023-02-13T14:37:52.690Z,7
2023-02-13T14:43:52.687Z,7
2023-02-13T14:49:52.682Z,7
2023-02-13T14:55:52.773Z,7
2023-02-13T15:01:53.149Z,5
2023-02-13T15:07:52.943Z,5
2023-02-13T15:13:52.673Z,9
2023-02-13T15:19:52.816Z,6
2023-02-13T15:25:52.700Z,5
2023-02-13T15:31:52.836Z,5
2023-02-13T15:37:52.710Z,8
2023-02-13T15:43:52.675Z,10
2023-02-13T15:49:52.685Z,7
2023-02-13T15:56:03.002Z,5
2023-02-13T16:01:52.732Z,5
2023-02-13T16:07:52.707Z,5
2023-02-13T16:13:52.722Z,7
2023-02-13T16:19:52.698Z,5
2023-02-13T16:25:52.692Z,7
2023-02-13T16:31:52.855Z,5
2023-02-13T16:37:52.696Z,5
2023-02-13T16:43:52.744Z,14
2023-02-13T16:49:52.791Z,17
2023-02-13T16:55:52.680Z,10
2023-02-13T17:01:52.682Z,34
2023-02-13T17:07:52.808Z,56
2023-02-13T17:13:52.692Z,9
2023-02-13T17:19:52.688Z,11
2023-02-13T17:25:52.833Z,7
2023-02-13T17:31:52.804Z,6
2023-02-13T17:37:52.695Z,7
2023-02-13T17:43:52.708Z,8
2023-02-13T17:49:59.190Z,11
2023-02-13T17:55:52.696Z,13
2023-02-13T18:01:52.733Z,16
2023-02-13T18:07:52.675Z,28
2023-02-13T18:13:52.853Z,24
2023-02-13T18:19:52.711Z,32
2023-02-13T18:25:52.751Z,37
2023-02-13T18:31:52.833Z,25
2023-02-13T18:37:52.708Z,23
2023-02-13T18:43:52.672Z,17
2023-02-13T18:49:52.682Z,22
2023-02-13T18:55:54.553Z,15
2023-02-13T19:01:52.789Z,10
2023-02-13T19:07:52.704Z,14
2023-02-13T19:13:52.706Z,9
2023-02-13T19:19:52.688Z,14
2023-02-13T19:25:52.705Z,11
2023-02-13T19:31:52.798Z,16
2023-02-13T19:37:52.707Z,22
2023-02-13T19:43:52.999Z,17
2023-02-13T19:49:53.497Z,12
2023-02-13T19:55:52.687Z,9
2023-02-13T20:01:52.879Z,11
2023-02-13T20:07:52.731Z,9
2023-02-13T20:13:52.700Z,16
2023-02-13T20:19:52.663Z,14
2023-02-13T20:25:52.723Z,11
2023-02-13T20:31:52.970Z,10
2023-02-13T20:37:52.676Z,9
2023-02-13T20:43:52.725Z,10
2023-02-13T20:49:52.663Z,11
2023-02-13T20:55:52.695Z,11
2023-02-13T21:01:52.685Z,16
2023-02-13T21:07:52.765Z,13
2023-02-13T21:13:52.679Z,18
2023-02-13T21:19:52.767Z,43
2023-02-13T21:25:52.702Z,17
2023-02-13T21:31:52.702Z,14
2023-02-13T21:37:52.762Z,12
2023-02-13T21:43:52.743Z,14
2023-02-13T21:49:52.723Z,9
2023-02-13T21:55:52.695Z,9
2023-02-13T22:01:52.844Z,9
2023-02-13T22:07:52.733Z,11
2023-02-13T22:13:52.714Z,10
2023-02-13T22:19:52.859Z,9
2023-02-13T22:25:52.705Z,9
2023-02-13T22:31:52.814Z,14
2023-02-13T22:37:52.679Z,9
2023-02-13T22:43:52.688Z,10
2023-02-13T22:49:52.726Z,11
2023-02-13T22:55:52.825Z,10
2023-02-13T23:01:52.702Z,10
2023-02-13T23:07:52.694Z,11
2023-02-13T23:13:52.677Z,9
2023-02-13T23:19:52.668Z,10
2023-02-13T23:25:52.694Z,11
2023-02-13T23:31:52.771Z,9
2023-02-13T23:37:52.681Z,10
2023-02-13T23:43:52.677Z,11
2023-02-13T23:49:52.676Z,10
2023-02-13T23:55:52.692Z,11
